createdAt,value
2023-09-03T00:00:08.513Z,91.76
2023-09-03T00:02:35.095Z,91.99
2023-09-03T00:05:01.679Z,91.96
2023-09-03T00:07:28.320Z,92.00
2023-09-03T00:09:54.903Z,92.23
2023-09-03T00:12:21.489Z,92.31
2023-09-03T00:14:48.256Z,92.48
2023-09-03T00:17:15.860Z,92.51
2023-09-03T00:19:49.338Z,92.64
2023-09-03T00:22:15.956Z,92.89
2023-09-03T00:24:42.456Z,92.73
2023-09-03T00:27:09.157Z,92.69
2023-09-03T00:29:36.831Z,92.80
2023-09-03T00:32:04.448Z,92.85
2023-09-03T00:34:33.758Z,92.76
2023-09-03T00:37:00.681Z,92.76
2023-09-03T00:39:27.325Z,92.68
2023-09-03T00:41:54.347Z,92.60
2023-09-03T00:44:23.204Z,92.67
2023-09-03T00:46:50.054Z,93.01
2023-09-03T00:49:21.370Z,93.25
2023-09-03T00:51:49.656Z,93.13
2023-09-03T00:54:16.316Z,93.04
2023-09-03T00:56:45.776Z,93.10
2023-09-03T00:59:12.373Z,93.21
2023-09-03T01:01:39.924Z,93.21
2023-09-03T01:04:06.576Z,93.12
2023-09-03T01:06:46.526Z,93.22
2023-09-03T01:09:13.183Z,93.27
2023-09-03T01:11:44.858Z,92.96
2023-09-03T01:14:24.712Z,93.53
2023-09-03T01:17:19.960Z,93.39
2023-09-03T01:19:58.357Z,93.30
2023-09-03T01:22:55.289Z,93.38
2023-09-03T01:25:46.970Z,93.30
2023-09-03T01:28:31.586Z,93.27
2023-09-03T01:31:02.988Z,93.63
2023-09-03T01:33:31.887Z,94.07
2023-09-03T01:36:12.680Z,94.20
2023-09-03T01:38:40.696Z,94.26
2023-09-03T01:41:08.688Z,94.47
2023-09-03T01:43:38.829Z,94.47
2023-09-03T01:46:08.575Z,94.71
2023-09-03T01:48:50.174Z,94.61
2023-09-03T01:51:25.778Z,94.83
2023-09-03T01:54:03.902Z,94.72
2023-09-03T01:56:35.989Z,94.64
2023-09-03T01:59:12.891Z,94.51
2023-09-03T02:01:39.640Z,94.45
2023-09-03T02:04:06.308Z,94.47
2023-09-03T02:06:32.827Z,94.39
2023-09-03T02:09:02.275Z,94.45
2023-09-03T02:11:28.763Z,94.47
2023-09-03T02:13:55.437Z,94.30
2023-09-03T02:16:22.664Z,94.45
2023-09-03T02:18:49.179Z,94.47
2023-09-03T02:21:28.231Z,94.56
2023-09-03T02:23:54.815Z,94.27
2023-09-03T02:26:21.331Z,94.23
2023-09-03T02:28:47.885Z,94.34
2023-09-03T02:31:14.494Z,94.63
2023-09-03T02:33:41.030Z,94.53
2023-09-03T02:36:07.706Z,94.57
2023-09-03T02:38:36.834Z,94.58
2023-09-03T02:41:03.418Z,94.55
2023-09-03T02:43:30.354Z,94.76
2023-09-03T02:45:56.941Z,94.73
2023-09-03T02:48:23.653Z,94.55
2023-09-03T02:50:50.250Z,94.46
2023-09-03T02:53:16.741Z,94.54
2023-09-03T02:55:48.902Z,94.45
2023-09-03T02:58:15.445Z,94.50
2023-09-03T03:00:41.997Z,94.45
2023-09-03T03:03:08.655Z,94.69
2023-09-03T03:05:35.565Z,94.76
2023-09-03T03:08:04.197Z,94.64
2023-09-03T03:10:30.891Z,94.63
2023-09-03T03:12:57.385Z,94.68
2023-09-03T03:15:23.919Z,94.56
2023-09-03T03:17:50.513Z,94.60
2023-09-03T03:20:17.283Z,94.45
2023-09-03T03:22:44.739Z,94.56
2023-09-03T03:25:23.791Z,94.59
2023-09-03T03:27:50.285Z,94.30
2023-09-03T03:30:16.809Z,94.58
2023-09-03T03:32:43.390Z,94.42
2023-09-03T03:35:10.275Z,94.58
2023-09-03T03:37:36.895Z,94.65
2023-09-03T03:40:04.986Z,94.73
2023-09-03T03:42:32.207Z,94.84
2023-09-03T03:44:58.739Z,94.76
2023-09-03T03:47:25.267Z,94.78
2023-09-03T03:49:52.258Z,94.76
2023-09-03T03:52:18.970Z,94.69
2023-09-03T03:54:45.560Z,94.73
2023-09-03T03:57:12.080Z,94.65
2023-09-03T03:59:38.656Z,94.82
2023-09-03T04:02:05.275Z,94.81
2023-09-03T04:04:31.801Z,94.87
2023-09-03T04:06:58.419Z,94.73
2023-09-03T04:09:24.906Z,94.73
2023-09-03T04:11:51.438Z,94.83
2023-09-03T04:14:17.993Z,94.89
2023-09-03T04:16:44.579Z,94.92
2023-09-03T04:19:12.793Z,94.97
2023-09-03T04:21:39.413Z,94.92
2023-09-03T04:24:07.649Z,95.32
2023-09-03T04:26:34.251Z,95.01
2023-09-03T04:29:00.890Z,94.86
2023-09-03T04:31:27.464Z,94.95
2023-09-03T04:33:54.139Z,94.96
2023-09-03T04:36:20.693Z,94.68
2023-09-03T04:38:47.251Z,94.84
2023-09-03T04:41:13.788Z,94.51
2023-09-03T04:43:47.205Z,94.34
2023-09-03T04:46:13.753Z,94.29
2023-09-03T04:48:40.417Z,94.44
2023-09-03T04:51:08.622Z,94.51
2023-09-03T04:53:35.359Z,94.54
2023-09-03T04:56:03.562Z,94.41
2023-09-03T04:58:30.244Z,94.47
2023-09-03T05:00:56.747Z,94.50
2023-09-03T05:03:23.404Z,94.41
2023-09-03T05:05:49.914Z,94.44
2023-09-03T05:08:16.432Z,94.46
2023-09-03T05:10:43.060Z,94.48
2023-09-03T05:13:09.611Z,94.45
2023-09-03T05:15:37.891Z,94.59
2023-09-03T05:18:04.630Z,94.62
2023-09-03T05:20:31.268Z,94.64
2023-09-03T05:22:57.765Z,94.58
2023-09-03T05:25:24.267Z,94.60
2023-09-03T05:27:50.875Z,94.35
2023-09-03T05:30:17.454Z,94.46
2023-09-03T05:32:44.113Z,94.56
2023-09-03T05:35:11.082Z,94.45
2023-09-03T05:37:37.804Z,94.53
2023-09-03T05:40:05.961Z,94.50
2023-09-03T05:42:32.691Z,94.48
2023-09-03T05:45:02.176Z,94.55
2023-09-03T05:47:28.738Z,94.58
2023-09-03T05:49:56.474Z,94.59
2023-09-03T05:52:23.017Z,94.62
2023-09-03T05:54:49.558Z,94.61
2023-09-03T05:57:16.169Z,94.63
2023-09-03T05:59:42.693Z,94.68
2023-09-03T06:02:09.334Z,94.61
2023-09-03T06:04:35.901Z,94.38
2023-09-03T06:07:02.432Z,94.47
2023-09-03T06:09:28.992Z,94.22
2023-09-03T06:11:55.566Z,94.36
2023-09-03T06:14:22.118Z,94.58
2023-09-03T06:16:48.664Z,94.51
2023-09-03T06:19:15.626Z,94.20
2023-09-03T06:21:42.225Z,94.40
2023-09-03T06:24:09.078Z,94.33
2023-09-03T06:26:35.630Z,94.53
2023-09-03T06:29:02.149Z,94.67
2023-09-03T06:31:28.855Z,94.65
2023-09-03T06:33:55.658Z,94.23
2023-09-03T06:36:22.292Z,94.45
2023-09-03T06:38:48.833Z,94.04
2023-09-03T06:41:15.780Z,94.29
2023-09-03T06:43:42.389Z,93.90
2023-09-03T06:46:09.615Z,93.66
2023-09-03T06:48:37.428Z,93.41
2023-09-03T06:51:04.836Z,93.52
2023-09-03T06:53:31.450Z,93.36
2023-09-03T06:55:58.410Z,93.22
2023-09-03T06:58:25.043Z,92.76
2023-09-03T07:00:53.830Z,92.97
2023-09-03T07:03:22.041Z,92.78
2023-09-03T07:05:48.699Z,92.65
2023-09-03T07:08:15.360Z,92.46
2023-09-03T07:10:41.987Z,92.41
2023-09-03T07:13:09.979Z,92.39
2023-09-03T07:15:37.498Z,92.10
2023-09-03T07:18:05.668Z,91.96
2023-09-03T07:20:35.390Z,91.28
2023-09-03T07:23:01.983Z,91.23
2023-09-03T07:25:32.713Z,90.91
2023-09-03T07:27:59.301Z,90.64
2023-09-03T07:30:25.993Z,90.35
2023-09-03T07:32:52.614Z,89.81
2023-09-03T07:35:19.492Z,90.04
2023-09-03T07:37:46.182Z,90.01
2023-09-03T07:40:13.041Z,90.10
2023-09-03T07:42:39.888Z,89.74
2023-09-03T07:45:07.184Z,89.14
2023-09-03T07:47:33.895Z,89.42
2023-09-03T07:50:02.336Z,89.30
2023-09-03T07:52:29.110Z,88.86
2023-09-03T07:54:55.668Z,88.17
2023-09-03T07:57:22.419Z,88.27
2023-09-03T07:59:51.607Z,88.17
2023-09-03T08:02:18.169Z,88.57
2023-09-03T08:04:48.505Z,88.28
2023-09-03T08:07:15.017Z,88.37
2023-09-03T08:09:42.120Z,88.03
2023-09-03T08:12:08.658Z,87.61
2023-09-03T08:14:35.248Z,87.57
2023-09-03T08:17:01.746Z,87.15
2023-09-03T08:19:28.473Z,87.18
2023-09-03T08:21:55.091Z,86.93
2023-09-03T08:24:21.734Z,86.61
2023-09-03T08:26:51.191Z,86.00
2023-09-03T08:29:17.775Z,86.15
2023-09-03T08:31:44.355Z,85.04
2023-09-03T08:34:11.441Z,83.52
2023-09-03T08:36:38.039Z,83.12
2023-09-03T08:39:07.206Z,84.08
2023-09-03T08:41:42.448Z,83.18
2023-09-03T08:44:35.988Z,81.24
2023-09-03T08:47:17.525Z,80.82
2023-09-03T08:49:59.870Z,78.80
2023-09-03T08:52:29.220Z,77.05
2023-09-03T08:54:56.606Z,76.61
2023-09-03T09:00:24.831Z,75.58
2023-09-03T09:02:53.499Z,75.35
2023-09-03T09:05:31.271Z,71.43
2023-09-03T09:07:59.665Z,72.10
2023-09-03T09:10:33.296Z,72.61
2023-09-03T09:13:07.912Z,71.82
2023-09-03T09:15:40.916Z,72.03
2023-09-03T09:18:11.864Z,71.61
2023-09-03T09:20:42.594Z,72.08
2023-09-03T09:23:09.877Z,71.94
2023-09-03T09:25:37.519Z,71.39
2023-09-03T09:28:14.329Z,72.77
2023-09-03T09:30:58.202Z,71.73
2023-09-03T09:33:26.246Z,70.80
2023-09-03T09:35:54.844Z,70.25
2023-09-03T09:38:36.090Z,70.48
2023-09-03T09:41:22.332Z,69.71
2023-09-03T09:43:49.084Z,69.19
2023-09-03T09:46:29.529Z,69.20
2023-09-03T09:48:58.175Z,68.20
2023-09-03T09:51:26.301Z,70.39
2023-09-03T09:54:04.312Z,68.43
2023-09-03T09:56:37.414Z,66.11
2023-09-03T09:59:05.537Z,65.55
2023-09-03T10:01:47.540Z,66.77
2023-09-03T10:04:14.468Z,63.93
2023-09-03T10:06:42.076Z,61.97
2023-09-03T10:09:09.770Z,62.71
2023-09-03T10:11:36.543Z,63.19
2023-09-03T10:14:03.162Z,64.90
2023-09-03T10:16:33.448Z,64.99
2023-09-03T10:19:19.567Z,63.16
2023-09-03T10:22:28.504Z,64.72
2023-09-03T10:25:25.150Z,64.94
2023-09-03T10:27:58.422Z,61.53
2023-09-03T10:30:31.325Z,63.99
2023-09-03T10:32:59.163Z,62.92
2023-09-03T10:35:25.956Z,61.12
2023-09-03T10:37:52.862Z,60.12
2023-09-03T10:40:26.055Z,59.34
2023-09-03T10:42:54.702Z,57.99
2023-09-03T10:45:28.052Z,56.91
2023-09-03T10:48:05.152Z,57.63
2023-09-03T10:51:02.054Z,60.05
2023-09-03T10:53:40.645Z,60.30
2023-09-03T10:56:51.085Z,60.90
2023-09-03T10:59:17.643Z,59.17
2023-09-03T11:01:46.893Z,61.05
2023-09-03T11:04:16.306Z,59.21
2023-09-03T11:07:15.169Z,60.22
2023-09-03T11:09:41.934Z,58.54
2023-09-03T11:12:08.680Z,57.56
2023-09-03T11:14:36.079Z,57.27
2023-09-03T11:17:09.777Z,57.55
2023-09-03T11:19:42.284Z,57.87
2023-09-03T11:22:09.405Z,55.08
2023-09-03T11:24:59.251Z,59.17
2023-09-03T11:27:25.894Z,56.52
2023-09-03T11:30:04.341Z,55.12
2023-09-03T11:32:38.517Z,51.05
2023-09-03T11:35:08.358Z,53.39
2023-09-03T11:37:36.761Z,52.91
2023-09-03T11:40:05.425Z,54.26
2023-09-03T11:42:33.146Z,53.00
2023-09-03T11:44:59.677Z,50.22
2023-09-03T11:47:26.295Z,51.78
2023-09-03T11:49:53.030Z,51.36
2023-09-03T11:52:19.727Z,52.73
2023-09-03T11:54:46.613Z,54.32
2023-09-03T11:57:16.475Z,53.45
2023-09-03T11:59:43.687Z,55.28
2023-09-03T12:02:30.408Z,55.73
2023-09-03T12:04:57.476Z,54.81
2023-09-03T12:07:24.083Z,54.94
